sim
Sign-in with your pilot id or email,
or register
Callsign
Passwort

Schedule Details

Flight Number: DLH2199 (1)
Departure: Cologne Bonn Airport (EDDK) at 13:30
Arrival: Munich Airport (EDDM) at 14:35
Route: Lufthansa Passenger Schedule. Enter filed route here before submitting Pirep.

Weather Information
Getting current METAR information for EDDK 192020Z 08004KT CAVOK 16/06 Q1016 NOSIG
Getting current METAR information for EDDM 192020Z VRB01KT CAVOK 12/10 Q1017 NOSIG

Schedule Frequency

Route Map